Time;durP1;ratioP1;P1;durP2;ratioP2;P2;SDS_P1;SDS_P2;PMS_P1;PMS_P2;Temp;Humidity;BMP_temperature;BMP_pressure;BME280_temperature;BME280_humidity;BME280_pressure;Samples;Min_cycle;Max_cycle;Signal;HPM_P1;HPM_P2
2021/04/11 00:00:33;;;;;;;1.55;1.10;;;17.90;52.60;;;;;;5077381;28;20170;-74
2021/04/11 00:02:58;;;;;;;1.05;1.02;;;17.90;52.60;;;;;;5060866;28;20215;-72
2021/04/11 00:05:26;;;;;;;1.15;1.00;;;17.90;52.60;;;;;;5095443;28;20178;-76
2021/04/11 00:07:52;;;;;;;2.25;1.33;;;17.90;52.60;;;;;;5095245;28;20176;-71
2021/04/11 00:10:21;;;;;;;1.23;1.02;;;17.90;53.00;;;;;;5076759;28;20201;-67
2021/04/11 00:12:46;;;;;;;1.10;1.00;;;17.90;53.30;;;;;;5060614;28;20270;-73
2021/04/11 00:15:13;;;;;;;1.10;1.00;;;17.80;52.60;;;;;;5077566;28;20178;-72
2021/04/11 00:17:38;;;;;;;1.95;1.30;;;17.80;52.50;;;;;;5059643;28;20716;-69
2021/04/11 00:20:05;;;;;;;1.63;0.98;;;17.80;52.60;;;;;;5095086;28;20258;-72
2021/04/11 00:22:31;;;;;;;1.02;1.00;;;17.80;52.60;;;;;;5094379;28;20172;-64
2021/04/11 00:24:56;;;;;;;1.27;1.15;;;17.80;52.60;;;;;;5095192;28;20169;-68
2021/04/11 00:27:22;;;;;;;2.05;1.13;;;17.80;52.60;;;;;;5077183;28;20201;-63
2021/04/11 00:29:47;;;;;;;1.23;1.00;;;17.80;52.60;;;;;;5094365;28;20194;-64
2021/04/11 00:32:13;;;;;;;1.77;1.00;;;17.80;52.60;;;;;;5094914;28;20174;-75
2021/04/11 00:34:39;;;;;;;1.50;1.20;;;17.80;52.60;;;;;;5094668;28;20617;-72
2021/04/11 00:37:05;;;;;;;0.60;0.60;;;17.80;52.60;;;;;;5076095;28;20177;-73
2021/04/11 00:39:30;;;;;;;1.70;1.08;;;17.80;52.60;;;;;;5076699;28;20169;-67
2021/04/11 00:41:59;;;;;;;1.33;1.23;;;17.70;52.50;;;;;;5060065;28;20527;-75
2021/04/11 00:44:24;;;;;;;1.77;1.20;;;17.70;52.50;;;;;;5059428;28;20181;-68
2021/04/11 00:46:56;;;;;;;1.13;1.02;;;17.70;52.60;;;;;;5059144;28;20621;-77
2021/04/11 00:49:29;;;;;;;1.00;0.88;;;17.70;52.50;;;;;;5076324;28;20174;-71
2021/04/11 00:51:55;;;;;;;2.08;1.10;;;17.70;52.50;;;;;;5059790;28;20275;-66
2021/04/11 00:54:20;;;;;;;1.77;1.05;;;17.70;52.50;;;;;;5094292;28;20660;-73
2021/04/11 00:56:46;;;;;;;1.10;1.00;;;17.70;52.50;;;;;;5094735;28;20181;-72
2021/04/11 00:59:12;;;;;;;1.05;0.95;;;17.70;52.50;;;;;;5059198;28;20170;-64
2021/04/11 01:01:38;;;;;;;1.85;1.20;;;17.70;52.50;;;;;;5076152;28;20208;-67
2021/04/11 01:04:07;;;;;;;3.20;1.05;;;17.70;52.50;;;;;;5076273;28;20165;-76
2021/04/11 01:06:35;;;;;;;1.27;1.10;;;17.70;52.60;;;;;;5058815;28;20173;-72
2021/04/11 01:09:07;;;;;;;0.98;0.75;;;17.60;52.40;;;;;;5059956;28;20181;-72
2021/04/11 01:11:32;;;;;;;1.30;0.95;;;17.60;52.50;;;;;;5060103;28;20718;-74
2021/04/11 01:14:02;;;;;;;0.95;0.88;;;17.60;52.50;;;;;;5075624;28;20252;-74
2021/04/11 01:16:28;;;;;;;1.50;1.27;;;17.60;52.50;;;;;;5042630;28;20656;-75
2021/04/11 01:18:54;;;;;;;1.05;1.05;;;17.60;52.40;;;;;;5058804;28;20174;-70
2021/04/11 01:21:33;;;;;;;1.40;1.10;;;17.60;52.50;;;;;;5075969;28;20517;-64
2021/04/11 01:24:15;;;;;;;0.70;0.70;;;17.60;52.50;;;;;;5075882;28;20686;-69
2021/04/11 01:26:41;;;;;;;2.70;0.80;;;17.60;52.50;;;;;;5075236;28;20178;-68
2021/04/11 01:29:07;;;;;;;0.93;0.93;;;17.50;52.40;;;;;;5059049;28;20285;-72
2021/04/11 01:31:33;;;;;;;0.90;0.80;;;17.60;52.50;;;;;;5058966;28;20300;-65
2021/04/11 01:33:59;;;;;;;1.00;0.90;;;17.60;52.40;;;;;;5074930;28;20249;-64
2021/04/11 01:36:27;;;;;;;0.95;0.88;;;17.50;52.40;;;;;;5058939;28;20177;-66
2021/04/11 01:38:53;;;;;;;0.90;0.90;;;17.50;52.40;;;;;;5059370;28;20215;-65
2021/04/11 01:41:25;;;;;;;1.00;0.90;;;17.50;52.40;;;;;;5075102;28;20565;-66
2021/04/11 01:43:51;;;;;;;0.90;0.90;;;17.50;52.40;;;;;;5075327;28;20170;-65
2021/04/11 01:46:17;;;;;;;0.70;0.70;;;17.50;52.40;;;;;;5059116;28;20541;-69
2021/04/11 01:48:42;;;;;;;0.77;0.73;;;17.50;52.40;;;;;;5074709;28;20184;-63
2021/04/11 01:51:09;;;;;;;0.95;0.80;;;17.50;52.40;;;;;;5075293;28;20214;-71
2021/04/11 01:53:35;;;;;;;1.05;0.82;;;17.50;52.40;;;;;;5058702;28;20165;-71
2021/04/11 01:56:00;;;;;;;0.70;0.70;;;17.50;52.40;;;;;;5057994;28;20261;-72
2021/04/11 01:58:26;;;;;;;1.58;1.20;;;17.40;52.40;;;;;;5092950;28;20166;-73
2021/04/11 02:01:08;;;;;;;0.93;0.85;;;17.40;52.30;;;;;;5058077;28;20257;-76
2021/04/11 02:03:33;;;;;;;1.30;0.90;;;17.40;52.40;;;;;;5059336;28;20173;-64
2021/04/11 02:06:05;;;;;;;1.00;1.00;;;17.40;52.30;;;;;;5058592;28;20169;-75
2021/04/11 02:08:31;;;;;;;0.70;0.70;;;17.40;52.30;;;;;;5058204;28;20252;-72
2021/04/11 02:10:57;;;;;;;0.70;0.70;;;17.40;52.40;;;;;;5058390;28;20237;-71
2021/04/11 02:13:29;;;;;;;1.30;1.10;;;17.40;52.40;;;;;;5054588;28;20249;-65
2021/04/11 02:15:57;;;;;;;0.90;0.90;;;17.40;52.30;;;;;;5071076;28;20181;-75
2021/04/11 02:18:23;;;;;;;0.73;0.50;;;17.40;52.40;;;;;;5071387;28;20166;-74
2021/04/11 02:20:49;;;;;;;0.70;0.70;;;17.40;52.40;;;;;;5072848;28;20181;-70
2021/04/11 02:23:15;;;;;;;0.80;0.80;;;17.40;52.40;;;;;;5054704;28;20190;-72
2021/04/11 02:25:46;;;;;;;0.70;0.70;;;17.40;52.40;;;;;;5054465;28;20170;-64
2021/04/11 02:28:12;;;;;;;0.70;0.70;;;17.30;52.40;;;;;;5055048;28;20197;-64
2021/04/11 02:30:46;;;;;;;0.88;0.80;;;17.30;53.00;;;;;;5070480;28;20206;-65
2021/04/11 02:33:11;;;;;;;0.70;0.65;;;17.30;52.40;;;;;;5055370;28;20545;-70
2021/04/11 02:35:37;;;;;;;0.77;0.77;;;17.30;52.40;;;;;;5071401;28;20662;-72
2021/04/11 02:38:02;;;;;;;0.50;0.50;;;17.30;52.40;;;;;;5071986;28;20174;-72
2021/04/11 02:40:31;;;;;;;0.52;0.52;;;17.30;52.40;;;;;;5054449;28;20178;-74
2021/04/11 02:42:58;;;;;;;0.70;0.70;;;17.30;52.30;;;;;;5054929;28;20172;-75
2021/04/11 02:45:29;;;;;;;0.88;0.70;;;17.30;52.30;;;;;;5071644;28;20186;-73
2021/04/11 02:47:55;;;;;;;0.80;0.70;;;17.30;52.30;;;;;;5055284;28;20629;-76
2021/04/11 02:50:22;;;;;;;0.70;0.70;;;17.30;52.40;;;;;;5070415;28;20300;-67
2021/04/11 02:52:58;;;;;;;0.60;0.60;;;17.30;52.40;;;;;;5071349;28;20163;-66
2021/04/11 02:55:23;;;;;;;1.33;0.60;;;17.30;52.40;;;;;;5038249;28;20589;-73
2021/04/11 02:57:49;;;;;;;0.70;0.70;;;17.20;52.30;;;;;;5070768;28;20197;-64
2021/04/11 03:00:17;;;;;;;0.70;0.70;;;17.20;52.30;;;;;;5054698;28;20219;-76
2021/04/11 03:02:44;;;;;;;1.60;1.08;;;17.20;52.30;;;;;;5054296;28;20178;-73
2021/04/11 03:05:10;;;;;;;0.50;0.43;;;17.20;52.30;;;;;;5053952;28;20198;-72
2021/04/11 03:07:47;;;;;;;0.60;0.60;;;17.20;52.90;;;;;;5054250;28;20198;-72
2021/04/11 03:10:51;;;;;;;0.73;0.73;;;17.30;52.40;;;;;;5055554;28;20206;-69
2021/04/11 03:13:17;;;;;;;0.55;0.55;;;17.20;52.30;;;;;;5074415;28;20225;-72
2021/04/11 03:15:43;;;;;;;0.93;0.90;;;17.20;52.30;;;;;;5058129;28;20170;-64
2021/04/11 03:18:10;;;;;;;0.68;0.68;;;17.20;52.30;;;;;;5041520;28;20518;-65
2021/04/11 03:20:39;;;;;;;0.95;0.70;;;17.20;52.30;;;;;;5074292;28;20174;-74
2021/04/11 03:23:06;;;;;;;1.70;0.70;;;17.20;52.30;;;;;;5058458;28;20265;-71
2021/04/11 03:25:33;;;;;;;0.50;0.50;;;17.20;52.30;;;;;;5057392;28;20178;-67
2021/04/11 03:28:09;;;;;;;0.60;0.60;;;17.10;52.30;;;;;;5075003;28;20166;-72
2021/04/11 03:30:54;;;;;;;0.80;0.80;;;17.10;52.30;;;;;;5058596;28;20201;-67
2021/04/11 03:33:19;;;;;;;0.60;0.60;;;17.10;52.30;;;;;;5074118;28;20166;-71
2021/04/11 03:35:47;;;;;;;0.65;0.65;;;17.20;52.30;;;;;;5058037;28;20174;-74
2021/04/11 03:38:13;;;;;;;0.73;0.73;;;17.10;53.00;;;;;;5058203;28;20162;-68
2021/04/11 03:40:40;;;;;;;0.55;0.55;;;17.10;52.30;;;;;;5057112;28;20253;-72
2021/04/11 03:43:18;;;;;;;0.60;0.60;;;17.10;52.30;;;;;;5058020;28;20262;-73
2021/04/11 03:45:44;;;;;;;0.68;0.52;;;17.10;52.30;;;;;;5057995;28;20715;-64
2021/04/11 03:48:25;;;;;;;0.50;0.50;;;17.10;52.30;;;;;;5073793;28;20194;-73
2021/04/11 03:50:56;;;;;;;0.60;0.60;;;17.10;52.30;;;;;;5074366;28;20568;-70
2021/04/11 03:53:25;;;;;;;0.98;0.70;;;17.10;52.30;;;;;;5057568;28;20587;-63
2021/04/11 03:55:50;;;;;;;0.70;0.70;;;17.10;52.30;;;;;;5057743;28;20655;-63
2021/04/11 03:58:24;;;;;;;0.50;0.50;;;17.00;52.30;;;;;;5074293;28;20248;-74
2021/04/11 04:00:58;;;;;;;0.50;0.50;;;17.00;52.30;;;;;;5057071;28;20178;-74
2021/04/11 04:03:25;;;;;;;0.65;0.65;;;17.00;52.30;;;;;;5057616;28;20664;-71
2021/04/11 04:05:50;;;;;;;0.43;0.43;;;17.00;52.20;;;;;;5057471;28;20261;-65
2021/04/11 04:08:16;;;;;;;0.50;0.50;;;17.00;52.30;;;;;;5056769;28;20609;-71
2021/04/11 04:11:00;;;;;;;0.60;0.57;;;17.00;52.30;;;;;;5073672;28;20744;-64
2021/04/11 04:13:55;;;;;;;0.60;0.50;;;17.00;52.30;;;;;;5059379;28;20708;-72
2021/04/11 04:16:54;;;;;;;0.50;0.50;;;17.00;52.30;;;;;;5058977;28;20532;-65
2021/04/11 04:19:42;;;;;;;0.50;0.50;;;17.00;52.30;;;;;;5050793;28;20193;-65
2021/04/11 04:22:19;;;;;;;0.50;0.50;;;17.00;52.30;;;;;;5071963;28;20171;-72
2021/04/11 04:24:47;;;;;;;0.32;0.32;;;17.00;52.30;;;;;;5073740;28;20166;-71
2021/04/11 04:27:35;;;;;;;0.50;0.50;;;16.90;52.20;;;;;;5073930;28;20167;-72
2021/04/11 04:30:13;;;;;;;0.45;0.45;;;16.90;52.20;;;;;;5056689;28;20537;-66
2021/04/11 04:32:54;;;;;;;0.40;0.40;;;16.90;52.20;;;;;;5074458;28;20216;-66
2021/04/11 04:35:38;;;;;;;0.40;0.35;;;16.90;52.20;;;;;;5074468;28;20629;-65
2021/04/11 04:38:17;;;;;;;0.47;0.47;;;16.90;52.20;;;;;;5074604;28;20228;-72
2021/04/11 04:40:44;;;;;;;0.50;0.50;;;16.90;52.20;;;;;;5073262;28;20187;-72
2021/04/11 04:43:31;;;;;;;0.50;0.50;;;16.90;52.20;;;;;;5073937;28;20189;-73
2021/04/11 04:46:10;;;;;;;0.50;0.50;;;16.90;52.30;;;;;;5073487;28;20240;-75
2021/04/11 04:48:41;;;;;;;0.40;0.40;;;16.90;52.30;;;;;;5073060;28;20163;-73
2021/04/11 04:51:17;;;;;;;0.50;0.50;;;16.90;52.30;;;;;;5072596;28;20293;-62
2021/04/11 04:54:27;;;;;;;0.50;0.50;;;16.90;52.20;;;;;;5057528;28;20158;-73
2021/04/11 04:57:04;;;;;;;0.47;0.47;;;16.90;52.20;;;;;;5025951;28;20581;-71
2021/04/11 04:59:36;;;;;;;0.90;0.75;;;16.90;52.30;;;;;;5056765;28;20178;-74
2021/04/11 05:02:09;;;;;;;0.43;0.43;;;16.90;52.30;;;;;;5056813;28;20705;-65
2021/04/11 05:04:35;;;;;;;0.43;0.43;;;16.80;52.10;;;;;;5056490;28;20182;-73
2021/04/11 05:07:15;;;;;;;0.55;0.40;;;16.90;52.20;;;;;;5056330;28;20167;-71
2021/04/11 05:09:48;;;;;;;0.82;0.80;;;16.90;52.20;;;;;;5056207;28;20214;-71
2021/04/11 05:12:16;;;;;;;0.50;0.50;;;16.90;52.20;;;;;;5072130;28;20226;-70
2021/04/11 05:14:52;;;;;;;0.45;0.40;;;16.90;52.30;;;;;;5072466;28;20179;-64
2021/04/11 05:17:28;;;;;;;0.47;0.47;;;17.00;52.30;;;;;;5072997;28;20166;-71
2021/04/11 05:20:06;;;;;;;0.40;0.40;;;17.10;52.20;;;;;;5072113;28;20173;-72
2021/04/11 05:22:37;;;;;;;0.40;0.40;;;17.30;52.00;;;;;;5056644;28;20201;-67
2021/04/11 05:25:16;;;;;;;0.40;0.40;;;17.40;51.80;;;;;;5071852;28;20177;-70
2021/04/11 05:28:03;;;;;;;0.40;0.40;;;17.60;51.50;;;;;;5072302;28;20353;-65
2021/04/11 05:30:30;;;;;;;0.30;0.30;;;17.80;51.30;;;;;;5072381;28;20560;-72
2021/04/11 05:32:56;;;;;;;0.52;0.40;;;18.00;50.90;;;;;;5071324;28;20170;-70
2021/04/11 05:35:22;;;;;;;0.43;0.40;;;18.20;50.70;;;;;;5055328;28;20170;-67
2021/04/11 05:38:15;;;;;;;0.40;0.40;;;18.30;50.60;;;;;;5055830;28;20167;-67
2021/04/11 05:40:51;;;;;;;0.47;0.47;;;18.30;50.40;;;;;;5056748;28;20185;-63
2021/04/11 05:43:22;;;;;;;0.40;0.40;;;18.40;50.30;;;;;;5072400;28;20174;-74
2021/04/11 05:46:22;;;;;;;0.32;0.30;;;18.50;50.20;;;;;;5055964;28;20649;-71
2021/04/11 05:49:05;;;;;;;0.60;0.50;;;18.60;49.90;;;;;;5053931;28;20185;-66
2021/04/11 05:51:49;;;;;;;0.40;0.40;;;18.60;49.70;;;;;;5071824;28;20213;-71
2021/04/11 05:54:18;;;;;;;0.88;0.40;;;18.70;49.60;;;;;;5055873;28;20261;-72
2021/04/11 05:56:50;;;;;;;0.43;0.40;;;18.80;49.60;;;;;;5072061;28;20170;-71
2021/04/11 05:59:22;;;;;;;0.60;0.38;;;18.80;49.60;;;;;;5072201;28;20623;-63
2021/04/11 06:01:53;;;;;;;0.30;0.30;;;18.80;49.60;;;;;;5054770;28;20205;-62
2021/04/11 06:04:20;;;;;;;0.50;0.50;;;18.80;49.60;;;;;;5054994;28;20284;-71
2021/04/11 06:07:08;;;;;;;0.30;0.30;;;18.70;49.70;;;;;;5071865;28;20210;-74
2021/04/11 06:09:59;;;;;;;0.30;0.30;;;18.60;49.80;;;;;;5056063;28;20180;-66
2021/04/11 06:13:03;;;;;;;0.28;0.28;;;18.60;49.90;;;;;;5055562;28;20237;-71
2021/04/11 06:15:28;;;;;;;0.30;0.30;;;18.40;50.00;;;;;;5027355;28;20201;-74
2021/04/11 06:17:54;;;;;;;0.45;0.30;;;18.40;50.20;;;;;;5072782;28;20167;-73
2021/04/11 06:20:20;;;;;;;0.40;0.40;;;18.30;50.20;;;;;;5071302;28;20557;-73
2021/04/11 06:22:57;;;;;;;0.40;0.40;;;18.20;51.00;;;;;;5054388;28;20179;-65
2021/04/11 06:25:36;;;;;;;0.30;0.30;;;18.10;50.50;;;;;;5071211;28;20169;-63
2021/04/11 06:28:19;;;;;;;0.40;0.40;;;18.10;50.60;;;;;;5071586;28;20201;-63
2021/04/11 06:31:10;;;;;;;0.30;0.30;;;18.00;50.70;;;;;;5072743;28;20225;-72
2021/04/11 06:33:38;;;;;;;0.20;0.20;;;17.90;50.90;;;;;;5054374;28;20174;-64
2021/04/11 06:36:09;;;;;;;0.30;0.30;;;17.80;50.90;;;;;;5054333;28;20167;-64
2021/04/11 06:38:47;;;;;;;0.30;0.30;;;17.80;51.00;;;;;;5071241;28;20178;-71
2021/04/11 06:41:40;;;;;;;0.32;0.32;;;17.80;51.10;;;;;;5055579;28;20255;-65
2021/04/11 06:44:40;;;;;;;0.40;0.40;;;17.80;51.10;;;;;;5070428;28;20691;-75
2021/04/11 06:47:33;;;;;;;0.65;0.30;;;17.90;51.20;;;;;;5071484;28;20632;-72
2021/04/11 06:50:11;;;;;;;0.30;0.30;;;17.90;51.10;;;;;;5071720;28;20265;-61
2021/04/11 06:52:44;;;;;;;0.32;0.32;;;17.80;51.10;;;;;;5072129;28;20174;-62
2021/04/11 06:55:14;;;;;;;0.40;0.40;;;17.80;51.10;;;;;;5071179;28;20179;-62
2021/04/11 06:57:55;;;;;;;0.20;0.20;;;17.80;51.10;;;;;;5070476;28;20509;-70
2021/04/11 07:00:43;;;;;;;0.40;0.40;;;17.80;51.20;;;;;;5072157;28;20228;-63
2021/04/11 07:03:42;;;;;;;1.33;0.30;;;17.70;51.20;;;;;;5071975;28;20638;-62
2021/04/11 07:06:41;;;;;;;0.30;0.30;;;17.70;51.30;;;;;;5072131;28;20182;-61
2021/04/11 07:09:10;;;;;;;0.73;0.57;;;17.70;51.50;;;;;;5072036;28;20231;-65
2021/04/11 07:12:00;;;;;;;0.50;0.50;;;17.80;51.70;;;;;;5073791;28;20282;-64
2021/04/11 07:14:35;;;;;;;1.15;0.55;;;17.90;51.80;;;;;;5092067;28;20245;-64
2021/04/11 07:17:07;;;;;;;1.58;0.50;;;17.90;52.00;;;;;;5092229;28;20179;-64
2021/04/11 07:19:53;;;;;;;0.73;0.40;;;18.00;52.00;;;;;;5091266;28;20173;-64
2021/04/11 07:22:33;;;;;;;2.03;0.57;;;18.00;51.90;;;;;;5091901;28;20203;-62
2021/04/11 07:25:29;;;;;;;1.00;0.50;;;18.00;51.90;;;;;;5091561;28;20180;-61
2021/04/11 07:28:20;;;;;;;1.60;0.60;;;17.90;52.00;;;;;;5058973;28;20170;-61
2021/04/11 07:31:08;;;;;;;0.40;0.40;;;17.90;52.00;;;;;;5060029;28;20205;-61
2021/04/11 07:33:52;;;;;;;1.83;0.50;;;17.90;51.90;;;;;;5091134;28;20171;-65
2021/04/11 07:36:37;;;;;;;0.40;0.35;;;17.80;51.90;;;;;;5092057;28;20176;-67
2021/04/11 07:39:21;;;;;;;1.42;0.68;;;17.80;52.00;;;;;;5073491;28;20630;-61
2021/04/11 07:42:37;;;;;;;0.80;0.50;;;17.80;52.00;;;;;;5058801;28;20174;-62
2021/04/11 07:45:15;;;;;;;3.33;0.80;;;17.80;52.10;;;;;;4990136;28;20181;-63
2021/04/11 07:48:04;;;;;;;1.08;0.63;;;17.80;52.30;;;;;;4989589;28;20235;-59
2021/04/11 07:50:52;;;;;;;1.67;0.60;;;17.80;52.40;;;;;;5069829;28;20217;-60
2021/04/11 07:53:39;;;;;;;1.13;0.60;;;17.80;52.40;;;;;;5091085;28;20170;-60
2021/04/11 07:56:44;;;;;;;0.77;0.60;;;17.80;52.50;;;;;;5092447;28;20197;-61
2021/04/11 07:59:33;;;;;;;0.95;0.60;;;17.70;52.50;;;;;;5064163;28;20200;-61
2021/04/11 08:02:18;;;;;;;2.00;0.80;;;17.70;52.60;;;;;;5078639;28;20257;-61
2021/04/11 08:05:05;;;;;;;1.60;0.70;;;17.70;52.80;;;;;;5095304;28;20166;-61
2021/04/11 08:07:54;;;;;;;1.80;0.63;;;17.70;53.60;;;;;;5094522;28;20197;-61
2021/04/11 08:10:48;;;;;;;1.85;0.70;;;17.70;52.90;;;;;;5079490;28;20197;-63
2021/04/11 08:13:23;;;;;;;2.35;0.60;;;17.80;52.90;;;;;;5079820;28;20304;-61
2021/04/11 08:15:57;;;;;;;2.30;0.50;;;18.10;52.80;;;;;;5076228;28;20157;-62
2021/04/11 08:18:54;;;;;;;1.30;0.60;;;18.40;52.30;;;;;;5097412;28;20172;-60
2021/04/11 08:21:43;;;;;;;3.90;0.70;;;18.80;51.60;;;;;;5101271;28;20207;-59
2021/04/11 08:24:30;;;;;;;1.27;0.55;;;19.20;50.90;;;;;;5089427;28;20211;-59
2021/04/11 08:27:11;;;;;;;1.48;0.60;;;19.40;50.30;;;;;;5101025;28;20158;-61
2021/04/11 08:29:39;;;;;;;1.45;0.50;;;19.60;50.00;;;;;;5100197;28;20173;-60
2021/04/11 08:32:36;;;;;;;1.13;0.40;;;19.70;49.70;;;;;;5103893;28;20177;-73
2021/04/11 08:35:22;;;;;;;0.90;0.60;;;19.90;49.50;;;;;;5083882;28;20177;-66
2021/04/11 08:38:02;;;;;;;1.42;0.70;;;20.00;49.20;;;;;;5068071;28;20194;-61
2021/04/11 08:40:50;;;;;;;0.95;0.50;;;20.10;49.00;;;;;;5085795;28;20235;-65
2021/04/11 08:43:43;;;;;;;3.30;0.60;;;20.20;49.00;;;;;;5055740;28;20162;-62
2021/04/11 08:46:16;;;;;;;1.10;0.40;;;20.30;48.80;;;;;;5099059;28;20256;-60
2021/04/11 08:49:16;;;;;;;1.98;0.55;;;20.40;48.70;;;;;;5062788;28;20196;-73
2021/04/11 08:51:54;;;;;;;1.95;0.73;;;20.40;48.70;;;;;;5094001;28;20202;-59
2021/04/11 08:54:42;;;;;;;3.03;0.80;;;20.40;48.60;;;;;;5060094;28;20166;-60
2021/04/11 08:57:26;;;;;;;1.75;0.63;;;20.50;48.60;;;;;;5078533;28;20188;-59
2021/04/11 09:00:20;;;;;;;2.08;0.77;;;20.60;49.20;;;;;;5094182;28;20223;-59
2021/04/11 09:02:57;;;;;;;1.42;0.50;;;20.60;48.60;;;;;;5066634;28;20178;-73
2021/04/11 09:05:28;;;;;;;0.73;0.40;;;20.50;48.70;;;;;;5094066;28;20165;-72
2021/04/11 09:08:14;;;;;;;1.20;0.60;;;20.60;48.70;;;;;;5075189;28;20636;-60
2021/04/11 09:10:52;;;;;;;1.38;0.40;;;20.60;48.80;;;;;;5077951;28;20206;-62
2021/04/11 09:13:30;;;;;;;3.03;0.43;;;20.50;48.80;;;;;;5075639;28;20225;-73
2021/04/11 09:16:14;;;;;;;1.27;0.50;;;20.50;49.00;;;;;;5077204;28;20174;-68
2021/04/11 09:19:27;;;;;;;1.10;0.57;;;20.50;49.00;;;;;;5093142;28;20170;-70
2021/04/11 09:22:22;;;;;;;2.67;0.60;;;20.50;49.00;;;;;;5017148;28;20661;-61
2021/04/11 09:24:58;;;;;;;1.25;0.50;;;20.40;49.00;;;;;;5093100;28;20189;-60
2021/04/11 09:27:47;;;;;;;0.70;0.70;;;20.30;49.00;;;;;;5059178;28;20169;-59
2021/04/11 09:30:50;;;;;;;1.20;0.63;;;20.20;49.10;;;;;;5076081;28;20202;-61
2021/04/11 09:33:53;;;;;;;0.88;0.50;;;20.20;49.00;;;;;;5092869;28;20173;-60
2021/04/11 09:36:40;;;;;;;1.23;0.73;;;20.20;49.00;;;;;;5073004;28;20680;-61
2021/04/11 09:39:31;;;;;;;0.60;0.50;;;20.20;49.00;;;;;;5089996;28;20173;-60
2021/04/11 09:42:29;;;;;;;0.57;0.40;;;20.20;49.00;;;;;;5087866;28;20165;-60
2021/04/11 09:45:18;;;;;;;0.55;0.50;;;20.30;49.00;;;;;;5081702;28;20282;-60
2021/04/11 09:48:08;;;;;;;1.00;0.70;;;20.30;49.10;;;;;;5100284;28;20165;-60
2021/04/11 09:50:38;;;;;;;2.05;0.82;;;20.30;49.40;;;;;;5092543;28;20205;-66
2021/04/11 09:53:23;;;;;;;1.35;0.70;;;20.30;49.30;;;;;;5074076;28;20166;-59
2021/04/11 09:56:07;;;;;;;0.60;0.40;;;20.30;49.30;;;;;;5089953;28;20252;-61
2021/04/11 09:58:45;;;;;;;1.80;0.57;;;20.30;49.30;;;;;;5090508;28;20169;-60
2021/04/11 10:01:22;;;;;;;1.25;0.40;;;20.40;49.10;;;;;;5071703;28;20162;-60
2021/04/11 10:04:15;;;;;;;0.68;0.45;;;20.40;49.10;;;;;;5071767;28;20222;-60
2021/04/11 10:07:05;;;;;;;0.98;0.43;;;20.40;49.30;;;;;;5090641;28;20235;-59
2021/04/11 10:09:46;;;;;;;0.55;0.50;;;20.50;49.20;;;;;;5090364;28;20169;-59
2021/04/11 10:12:23;;;;;;;0.88;0.50;;;20.50;49.10;;;;;;5090103;28;20296;-59
2021/04/11 10:15:21;;;;;;;0.93;0.35;;;20.50;49.20;;;;;;5089381;28;20162;-59
2021/04/11 10:17:58;;;;;;;1.40;0.47;;;20.50;49.30;;;;;;5077079;28;20174;-59
2021/04/11 10:20:38;;;;;;;0.77;0.60;;;20.50;49.20;;;;;;5073440;28;20166;-61
2021/04/11 10:23:22;;;;;;;2.78;0.75;;;20.40;49.30;;;;;;5040435;28;20256;-60
2021/04/11 10:26:12;;;;;;;0.50;0.50;;;20.50;49.40;;;;;;5089509;28;20582;-60
2021/04/11 10:28:54;;;;;;;0.40;0.40;;;20.50;49.40;;;;;;5068599;28;20253;-60
2021/04/11 10:31:31;;;;;;;0.50;0.40;;;20.50;49.50;;;;;;5072964;28;20236;-59
2021/04/11 10:34:21;;;;;;;1.83;0.50;;;20.40;49.60;;;;;;5092654;28;20212;-75
2021/04/11 10:37:04;;;;;;;2.03;0.60;;;20.40;49.60;;;;;;5052967;28;20287;-63
2021/04/11 10:39:45;;;;;;;1.67;0.63;;;20.30;49.80;;;;;;5053851;28;20170;-61
2021/04/11 10:42:28;;;;;;;1.73;0.47;;;20.30;49.80;;;;;;5054168;28;20170;-71
2021/04/11 10:44:59;;;;;;;1.63;0.40;;;20.30;49.90;;;;;;5055767;28;20186;-59
2021/04/11 10:47:40;;;;;;;0.73;0.55;;;20.20;50.00;;;;;;5071904;28;20637;-72
2021/04/11 10:50:33;;;;;;;0.93;0.50;;;20.20;50.10;;;;;;5071696;28;20615;-59
2021/04/11 10:53:27;;;;;;;0.50;0.35;;;20.20;50.10;;;;;;5072217;28;20190;-60
2021/04/11 10:56:19;;;;;;;0.52;0.30;;;20.20;50.10;;;;;;5071411;28;20177;-59
2021/04/11 10:59:22;;;;;;;1.65;0.63;;;20.20;50.10;;;;;;5072315;28;20175;-60
2021/04/11 11:02:16;;;;;;;0.80;0.50;;;20.30;50.10;;;;;;5071996;28;20259;-63
2021/04/11 11:05:00;;;;;;;0.60;0.40;;;20.30;50.00;;;;;;5053207;28;20265;-70
2021/04/11 11:07:43;;;;;;;0.75;0.45;;;20.30;50.20;;;;;;5053949;28;20186;-63
2021/04/11 11:10:37;;;;;;;0.40;0.40;;;20.30;50.10;;;;;;5071384;28;20602;-63
2021/04/11 11:13:48;;;;;;;0.47;0.30;;;20.30;49.80;;;;;;5050739;28;20284;-63
2021/04/11 11:16:39;;;;;;;1.25;0.50;;;20.20;49.70;;;;;;5035746;28;20673;-62
2021/04/11 11:19:32;;;;;;;0.65;0.30;;;20.10;49.70;;;;;;5050796;28;20174;-63
2021/04/11 11:22:13;;;;;;;1.15;0.60;;;20.10;49.60;;;;;;5050748;28;20246;-65
2021/04/11 11:24:46;;;;;;;0.60;0.50;;;20.10;49.80;;;;;;5049954;28;20190;-79
2021/04/11 11:27:20;;;;;;;1.58;0.50;;;20.10;49.80;;;;;;5050741;28;20658;-62
2021/04/11 11:30:07;;;;;;;1.30;0.50;;;20.00;49.80;;;;;;5051925;28;20304;-71
2021/04/11 11:32:51;;;;;;;0.90;0.40;;;20.00;49.80;;;;;;5052864;28;20240;-62
2021/04/11 11:35:17;;;;;;;2.13;0.50;;;20.00;49.80;;;;;;5054568;28;20229;-68
2021/04/11 11:37:55;;;;;;;0.85;0.50;;;20.00;49.90;;;;;;5056513;28;20170;-62
2021/04/11 11:40:41;;;;;;;3.35;0.75;;;20.10;49.80;;;;;;5057364;28;20641;-61
2021/04/11 11:43:18;;;;;;;1.95;0.38;;;20.10;49.60;;;;;;5074281;28;20539;-60
2021/04/11 11:46:28;;;;;;;0.43;0.43;;;20.20;49.60;;;;;;5074839;28;20249;-61
2021/04/11 11:49:16;;;;;;;0.35;0.35;;;20.30;49.60;;;;;;4993932;28;20185;-63
2021/04/11 11:51:50;;;;;;;2.15;0.57;;;20.30;49.70;;;;;;5067697;28;20218;-61
2021/04/11 11:54:42;;;;;;;1.88;0.40;;;20.20;50.30;;;;;;5074161;28;20288;-72
2021/04/11 11:57:13;;;;;;;1.73;0.43;;;20.20;49.80;;;;;;5071322;28;20273;-66
2021/04/11 11:59:57;;;;;;;1.50;0.40;;;20.10;49.90;;;;;;5073216;28;20479;-63
2021/04/11 12:02:32;;;;;;;0.98;0.57;;;20.00;50.00;;;;;;5074833;28;20197;-63
2021/04/11 12:05:03;;;;;;;1.45;0.50;;;20.00;50.00;;;;;;5074186;28;20166;-62
2021/04/11 12:08:02;;;;;;;1.63;0.65;;;20.00;50.00;;;;;;5056543;28;20170;-63
2021/04/11 12:10:33;;;;;;;1.40;0.57;;;20.00;50.00;;;;;;5073552;28;20191;-74
2021/04/11 12:13:08;;;;;;;1.33;0.47;;;20.10;50.00;;;;;;5056680;28;20218;-67
2021/04/11 12:15:40;;;;;;;2.47;0.50;;;20.10;49.90;;;;;;5058042;28;20227;-75
2021/04/11 12:18:20;;;;;;;1.73;0.60;;;20.20;49.70;;;;;;5057351;28;20691;-76
2021/04/11 12:20:53;;;;;;;2.58;0.32;;;20.20;50.30;;;;;;5039737;28;20178;-62
2021/04/11 12:23:27;;;;;;;1.30;0.40;;;20.20;49.70;;;;;;5057569;28;20170;-62
2021/04/11 12:26:15;;;;;;;1.48;0.30;;;20.20;49.70;;;;;;5074648;28;20170;-62
2021/04/11 12:28:41;;;;;;;1.27;0.50;;;20.10;49.80;;;;;;5072620;28;20158;-62
2021/04/11 12:31:20;;;;;;;0.88;0.60;;;20.10;50.00;;;;;;5056351;28;20202;-61
2021/04/11 12:33:52;;;;;;;1.92;0.52;;;20.00;50.10;;;;;;5057300;28;20175;-62
2021/04/11 12:36:29;;;;;;;0.93;0.40;;;19.90;50.20;;;;;;5056906;28;20173;-71
2021/04/11 12:38:57;;;;;;;0.73;0.60;;;19.90;50.20;;;;;;5073185;28;20479;-72
2021/04/11 12:41:32;;;;;;;1.05;0.30;;;19.80;50.20;;;;;;5056000;28;20166;-62
2021/04/11 12:44:07;;;;;;;2.65;0.50;;;19.90;50.30;;;;;;5056349;28;20170;-62
2021/04/11 12:47:05;;;;;;;0.52;0.40;;;19.90;50.20;;;;;;5072940;28;20166;-76
2021/04/11 12:49:48;;;;;;;0.63;0.32;;;20.00;50.10;;;;;;5072292;28;20569;-61
2021/04/11 12:52:51;;;;;;;0.60;0.40;;;20.10;50.70;;;;;;5073262;28;20182;-62
2021/04/11 12:55:32;;;;;;;0.20;0.20;;;20.10;50.00;;;;;;5073694;28;20170;-62
2021/04/11 12:58:07;;;;;;;0.40;0.30;;;20.10;50.00;;;;;;5072880;28;20162;-65
2021/04/11 13:00:58;;;;;;;0.55;0.40;;;20.00;50.00;;;;;;5072677;28;20177;-64
2021/04/11 13:03:30;;;;;;;2.05;0.52;;;20.00;50.00;;;;;;5072171;28;20181;-65
2021/04/11 13:06:23;;;;;;;2.33;0.50;;;20.00;50.10;;;;;;5056825;28;20201;-63
2021/04/11 13:08:59;;;;;;;1.27;0.52;;;20.00;50.20;;;;;;5073077;28;20166;-62
2021/04/11 13:11:28;;;;;;;0.70;0.40;;;20.00;50.00;;;;;;5072362;28;20213;-63
2021/04/11 13:13:59;;;;;;;1.83;0.38;;;20.00;50.50;;;;;;5090051;28;20241;-62
2021/04/11 13:16:41;;;;;;;2.50;0.40;;;20.10;49.80;;;;;;5075198;28;20169;-63
2021/04/11 13:19:16;;;;;;;2.38;0.40;;;20.10;49.50;;;;;;5078371;28;20165;-61
2021/04/11 13:22:07;;;;;;;2.30;0.60;;;20.10;49.30;;;;;;5075915;28;20161;-63
2021/04/11 13:24:57;;;;;;;4.25;0.85;;;20.10;49.20;;;;;;5077960;28;20178;-62
2021/04/11 13:27:28;;;;;;;1.17;0.40;;;20.10;49.10;;;;;;5093683;28;21297;-62
2021/04/11 13:30:09;;;;;;;1.50;0.45;;;20.10;49.00;;;;;;5055718;28;20229;-61
2021/04/11 13:32:47;;;;;;;0.93;0.35;;;20.00;48.90;;;;;;5056419;28;20252;-63
2021/04/11 13:35:17;;;;;;;1.90;0.60;;;19.90;49.20;;;;;;5055745;28;20186;-62
2021/04/11 13:37:52;;;;;;;2.10;0.60;;;19.90;49.30;;;;;;5054709;28;20206;-66
2021/04/11 13:40:20;;;;;;;0.70;0.40;;;19.80;49.40;;;;;;5055626;28;20170;-65
2021/04/11 13:43:24;;;;;;;2.13;0.40;;;19.80;49.30;;;;;;5060413;28;20163;-64